createdAt,value
2023-07-22T00:02:09.434Z,96496.79
2023-07-22T00:04:43.446Z,96501.45
2023-07-22T00:07:14.668Z,96496.02
2023-07-22T00:09:51.607Z,96497.27
2023-07-22T00:12:34.425Z,96495.93
2023-07-22T00:15:07.670Z,96495.69
2023-07-22T00:17:39.960Z,96496.91
2023-07-22T00:20:16.722Z,96493.90
2023-07-22T00:22:51.582Z,96498.10
2023-07-22T00:25:29.201Z,96497.63
2023-07-22T00:28:00.868Z,96499.40
2023-07-22T00:30:35.516Z,96501.73
2023-07-22T00:33:08.083Z,96494.34
2023-07-22T00:35:39.670Z,96492.64
2023-07-22T00:38:11.880Z,96490.58
2023-07-22T00:40:44.763Z,96493.81
2023-07-22T00:43:15.584Z,96492.41
2023-07-22T00:45:46.277Z,96494.75
2023-07-22T00:48:17.926Z,96498.00
2023-07-22T00:50:51.290Z,96501.42
2023-07-22T00:53:21.927Z,96502.04
2023-07-22T00:55:52.901Z,96500.98
2023-07-22T00:58:23.544Z,96505.49
2023-07-22T01:00:54.645Z,96503.15
2023-07-22T01:03:26.705Z,96505.03
2023-07-22T01:05:59.735Z,96506.27
2023-07-22T01:08:30.252Z,96504.64
2023-07-22T01:11:01.049Z,96503.98
2023-07-22T01:13:34.690Z,96504.59
2023-07-22T01:16:06.117Z,96505.63
2023-07-22T01:18:37.234Z,96504.60
2023-07-22T01:21:08.865Z,96506.86
2023-07-22T01:23:41.343Z,96507.16
2023-07-22T01:26:12.489Z,96508.71
2023-07-22T01:28:43.072Z,96509.72
2023-07-22T01:31:14.666Z,96508.73
2023-07-22T01:33:48.558Z,96513.90
2023-07-22T01:36:19.334Z,96515.58
2023-07-22T01:38:51.343Z,96513.73
2023-07-22T01:41:22.029Z,96513.95
2023-07-22T01:43:52.723Z,96518.73
2023-07-22T01:46:23.379Z,96516.77
2023-07-22T01:48:57.305Z,96519.58
2023-07-22T01:51:27.913Z,96520.20
2023-07-22T01:53:58.739Z,96526.52
2023-07-22T01:56:29.807Z,96524.86
2023-07-22T01:59:01.586Z,96525.58
2023-07-22T02:01:32.210Z,96526.64
2023-07-22T02:04:04.035Z,96526.44
2023-07-22T02:06:35.997Z,96526.63
2023-07-22T02:09:09.289Z,96529.56
2023-07-22T02:11:40.688Z,96526.66
2023-07-22T02:14:14.209Z,96527.54
2023-07-22T02:16:46.427Z,96529.36
2023-07-22T02:19:17.097Z,96527.84
2023-07-22T02:21:49.101Z,96536.45
2023-07-22T02:24:19.766Z,96539.04
2023-07-22T02:26:51.936Z,96539.79
2023-07-22T02:29:22.901Z,96545.77
2023-07-22T02:31:57.645Z,96545.58
2023-07-22T02:34:28.312Z,96546.78
2023-07-22T02:36:58.878Z,96550.70
2023-07-22T02:39:29.724Z,96546.09
2023-07-22T02:42:00.932Z,96545.34
2023-07-22T02:44:31.663Z,96541.81
2023-07-22T02:47:02.225Z,96539.25
2023-07-22T02:49:33.054Z,96543.98
2023-07-22T02:52:08.030Z,96547.58
2023-07-22T02:54:45.026Z,96550.44
2023-07-22T02:57:16.888Z,96554.12
2023-07-22T02:59:47.231Z,96552.98
2023-07-22T03:02:18.100Z,96560.11
2023-07-22T03:04:48.742Z,96559.94
2023-07-22T03:07:21.239Z,96554.10
2023-07-22T03:09:51.882Z,96549.14
2023-07-22T03:12:22.208Z,96551.91
2023-07-22T03:14:57.494Z,96551.41
2023-07-22T03:17:33.503Z,96553.66
2023-07-22T03:20:09.872Z,96553.05
2023-07-22T03:22:41.111Z,96551.67
2023-07-22T03:25:12.572Z,96552.45
2023-07-22T03:27:44.910Z,96554.48
2023-07-22T03:30:18.536Z,96556.80
2023-07-22T03:32:52.207Z,96558.73
2023-07-22T03:35:23.095Z,96555.02
2023-07-22T03:37:57.324Z,96555.85
2023-07-22T03:40:31.640Z,96558.55
2023-07-22T03:43:05.409Z,96557.08
2023-07-22T03:45:37.987Z,96556.17
2023-07-22T03:48:11.279Z,96555.36
2023-07-22T03:50:42.231Z,96564.13
2023-07-22T03:53:12.595Z,96561.56
2023-07-22T03:55:43.045Z,96556.23
2023-07-22T03:58:13.961Z,96559.86
2023-07-22T04:00:45.824Z,96555.40
2023-07-22T04:03:17.450Z,96557.59
2023-07-22T04:05:56.628Z,96557.89
2023-07-22T04:08:28.557Z,96560.75
2023-07-22T04:11:01.346Z,96556.54
2023-07-22T04:13:34.820Z,96558.93
2023-07-22T04:16:06.073Z,96553.17
2023-07-22T04:18:36.699Z,96551.91
2023-07-22T04:21:07.098Z,96553.45
2023-07-22T04:23:38.580Z,96559.71
2023-07-22T04:26:10.080Z,96561.59
2023-07-22T04:28:42.950Z,96559.12
2023-07-22T04:31:14.149Z,96556.27
2023-07-22T04:33:45.046Z,96553.51
2023-07-22T04:36:15.902Z,96556.80
2023-07-22T04:38:46.489Z,96558.50
2023-07-22T04:41:17.106Z,96566.48
2023-07-22T04:43:48.502Z,96563.77
2023-07-22T04:46:19.719Z,96561.27
2023-07-22T04:48:51.743Z,96556.28
2023-07-22T04:51:22.217Z,96556.98
2023-07-22T04:53:53.056Z,96559.47
2023-07-22T04:56:25.047Z,96560.10
2023-07-22T04:58:56.000Z,96564.26
2023-07-22T05:01:26.985Z,96562.55
2023-07-22T05:03:58.939Z,96562.09
2023-07-22T05:06:31.744Z,96562.55
2023-07-22T05:09:06.035Z,96565.33
2023-07-22T05:11:36.401Z,96569.66
2023-07-22T05:14:11.703Z,96567.23
2023-07-22T05:16:42.141Z,96567.29
2023-07-22T05:19:12.577Z,96558.94
2023-07-22T05:21:43.895Z,96564.23
2023-07-22T05:24:15.255Z,96564.13
2023-07-22T05:26:58.962Z,96562.55
2023-07-22T05:29:38.573Z,96562.29
2023-07-22T05:32:27.363Z,96558.73
2023-07-22T05:35:03.733Z,96557.71
2023-07-22T05:37:36.470Z,96555.48
2023-07-22T05:40:13.444Z,96548.88
2023-07-22T05:42:50.107Z,96551.20
2023-07-22T05:45:24.301Z,96553.71
2023-07-22T05:47:57.438Z,96557.00
2023-07-22T05:50:30.686Z,96556.95
2023-07-22T05:53:04.896Z,96557.33
2023-07-22T05:55:37.656Z,96555.11
2023-07-22T05:58:18.911Z,96553.49
2023-07-22T06:00:59.266Z,96547.95
2023-07-22T06:03:32.173Z,96551.95
2023-07-22T06:06:02.959Z,96554.52
2023-07-22T06:08:34.051Z,96553.50
2023-07-22T06:11:06.410Z,96547.88
2023-07-22T06:13:37.560Z,96548.09
2023-07-22T06:16:09.199Z,96551.70
2023-07-22T06:18:41.732Z,96548.46
2023-07-22T06:21:14.339Z,96546.31
2023-07-22T06:23:46.515Z,96548.63
2023-07-22T06:26:17.264Z,96547.39
2023-07-22T06:28:48.270Z,96543.83
2023-07-22T06:31:19.775Z,96541.77
2023-07-22T06:33:50.780Z,96538.45
2023-07-22T06:36:21.802Z,96535.49
2023-07-22T06:38:52.540Z,96534.45
2023-07-22T06:41:25.526Z,96536.33
2023-07-22T06:43:56.753Z,96537.67
2023-07-22T06:46:28.100Z,96537.57
2023-07-22T06:49:00.764Z,96542.24
2023-07-22T06:51:33.987Z,96545.14
2023-07-22T06:54:05.111Z,96542.09
2023-07-22T06:56:35.639Z,96537.18
2023-07-22T06:59:09.942Z,96531.32
2023-07-22T07:01:40.272Z,96536.72
2023-07-22T07:04:10.848Z,96537.56
2023-07-22T07:06:41.877Z,96536.89
2023-07-22T07:09:13.164Z,96533.77
2023-07-22T07:11:44.057Z,96526.90
2023-07-22T07:14:15.203Z,96528.84
2023-07-22T07:16:49.103Z,96522.82
2023-07-22T07:19:19.660Z,96523.30
2023-07-22T07:21:53.728Z,96519.46
2023-07-22T07:24:31.929Z,96520.90
2023-07-22T07:27:03.102Z,96517.42
2023-07-22T07:29:52.980Z,96514.70
2023-07-22T07:32:27.405Z,96517.69
2023-07-22T07:35:02.315Z,96511.88
2023-07-22T07:37:34.577Z,96510.80
2023-07-22T07:40:07.234Z,96511.25
2023-07-22T07:42:41.987Z,96507.90
2023-07-22T07:45:28.172Z,96502.55
2023-07-22T07:47:59.300Z,96500.85
2023-07-22T07:50:33.734Z,96499.83
2023-07-22T07:53:05.268Z,96496.35
2023-07-22T07:55:36.181Z,96496.46
2023-07-22T07:58:11.269Z,96494.23
2023-07-22T08:00:42.324Z,96494.62
2023-07-22T08:03:16.981Z,96492.56
2023-07-22T08:05:49.849Z,96494.80
2023-07-22T08:08:34.727Z,96493.34
2023-07-22T08:11:20.178Z,96486.16
2023-07-22T08:13:57.871Z,96485.94
2023-07-22T08:16:37.555Z,96485.10
2023-07-22T08:19:19.732Z,96487.95
2023-07-22T08:21:52.080Z,96482.84
2023-07-22T08:24:23.485Z,96475.98
2023-07-22T08:27:05.498Z,96475.64
2023-07-22T08:29:41.428Z,96469.50
2023-07-22T08:32:17.946Z,96464.88
2023-07-22T08:34:54.183Z,96461.58
2023-07-22T08:38:09.224Z,96461.54
2023-07-22T08:41:00.653Z,96453.88
2023-07-22T08:43:33.702Z,96446.85
2023-07-22T08:46:05.456Z,96448.64
2023-07-22T08:48:38.740Z,96444.60
2023-07-22T08:51:23.768Z,96444.50
2023-07-22T08:54:11.232Z,96440.21
2023-07-22T08:56:47.950Z,96437.46
2023-07-22T08:59:29.093Z,96439.63
2023-07-22T09:02:09.376Z,96438.20
2023-07-22T09:04:42.927Z,96436.44
2023-07-22T09:07:35.419Z,96437.86
2023-07-22T09:10:18.245Z,96437.94
2023-07-22T09:12:50.312Z,96431.34
2023-07-22T09:15:21.822Z,96426.23
2023-07-22T09:17:54.968Z,96421.27
2023-07-22T09:20:29.667Z,96418.66
2023-07-22T09:23:12.580Z,96414.98
2023-07-22T09:25:48.909Z,96407.26
2023-07-22T09:28:22.408Z,96407.40
2023-07-22T09:31:04.845Z,96401.48
2023-07-22T09:33:40.022Z,96399.89
2023-07-22T09:36:12.746Z,96396.41
2023-07-22T09:38:44.140Z,96395.89
2023-07-22T09:41:21.629Z,96393.66
2023-07-22T09:43:52.277Z,96388.10
2023-07-22T09:46:26.923Z,96383.47
2023-07-22T09:49:07.460Z,96385.36
2023-07-22T09:51:53.076Z,96379.70
2023-07-22T09:54:34.213Z,96379.91
2023-07-22T09:57:07.309Z,96379.98
2023-07-22T09:59:39.030Z,96381.41
2023-07-22T10:02:14.319Z,96380.46
2023-07-22T10:04:47.635Z,96371.94
2023-07-22T10:07:19.129Z,96366.46
2023-07-22T10:09:51.643Z,96369.88
2023-07-22T10:12:22.383Z,96365.60
2023-07-22T10:14:55.371Z,96357.30
2023-07-22T10:17:28.104Z,96355.35
2023-07-22T10:20:05.051Z,96354.99
2023-07-22T10:22:38.516Z,96353.14
2023-07-22T10:25:09.940Z,96353.30
2023-07-22T10:27:41.822Z,96349.69
2023-07-22T10:30:13.708Z,96352.83
2023-07-22T10:32:48.393Z,96350.17
2023-07-22T10:35:26.176Z,96348.05
2023-07-22T10:37:57.317Z,96347.39
2023-07-22T10:40:32.291Z,96341.80
2023-07-22T10:43:06.368Z,96342.13
2023-07-22T10:45:42.624Z,96338.45
2023-07-22T10:48:18.841Z,96336.98
2023-07-22T10:51:01.347Z,96324.10
2023-07-22T10:53:33.244Z,96326.98
2023-07-22T10:56:08.884Z,96329.64
2023-07-22T10:58:57.218Z,96326.26
2023-07-22T11:01:34.551Z,96324.24
2023-07-22T11:04:13.177Z,96321.39
2023-07-22T11:06:59.397Z,96318.67
2023-07-22T11:09:42.103Z,96317.56
2023-07-22T11:12:23.198Z,96320.08
2023-07-22T11:15:05.693Z,96314.30
2023-07-22T11:17:37.856Z,96315.77
2023-07-22T11:20:14.085Z,96318.98
2023-07-22T11:22:49.033Z,96313.96
2023-07-22T11:25:24.387Z,96315.05
2023-07-22T11:28:08.572Z,96311.05
2023-07-22T11:31:08.780Z,96306.19
2023-07-22T11:34:10.303Z,96303.11
2023-07-22T11:36:42.719Z,96298.66
2023-07-22T11:39:15.066Z,96299.95
2023-07-22T11:41:46.224Z,96295.48
2023-07-22T11:47:14.272Z,96291.11
2023-07-22T11:49:51.742Z,96285.50
2023-07-22T11:52:24.688Z,96282.63
2023-07-22T11:55:19.610Z,96281.27
2023-07-22T11:58:06.802Z,96283.44
2023-07-22T12:01:26.874Z,96286.61
2023-07-22T12:04:02.325Z,96283.52
2023-07-22T12:06:32.576Z,96285.48
2023-07-22T12:09:30.908Z,96285.26
2023-07-22T12:12:11.170Z,96283.80
2023-07-22T12:14:45.410Z,96279.65
2023-07-22T12:17:22.955Z,96275.52
2023-07-22T12:20:04.185Z,96278.09
2023-07-22T12:22:36.742Z,96276.73
2023-07-22T12:25:09.594Z,96278.73
2023-07-22T12:27:40.601Z,96277.78
2023-07-22T12:30:12.682Z,96272.05
2023-07-22T12:32:43.708Z,96274.91
2023-07-22T12:35:15.052Z,96275.36
2023-07-22T12:37:47.115Z,96269.41
2023-07-22T12:40:18.228Z,96272.10
2023-07-22T12:42:51.559Z,96274.64
2023-07-22T12:45:21.970Z,96274.89
2023-07-22T12:47:53.354Z,96270.46
2023-07-22T12:50:24.704Z,96269.30
2023-07-22T12:52:55.654Z,96273.83
2023-07-22T12:55:27.520Z,96273.75
2023-07-22T12:58:05.882Z,96275.86
2023-07-22T13:00:42.108Z,96273.99
2023-07-22T13:03:20.427Z,96271.60
2023-07-22T13:06:02.672Z,96271.73
2023-07-22T13:08:36.298Z,96266.20
2023-07-22T13:11:12.010Z,96263.46
2023-07-22T13:13:44.419Z,96263.59
2023-07-22T13:16:15.368Z,96261.27
2023-07-22T13:18:51.565Z,96260.83
2023-07-22T13:21:35.270Z,96261.23
2023-07-22T13:24:08.261Z,96259.42
2023-07-22T13:26:54.391Z,96257.70
2023-07-22T13:29:25.733Z,96255.00
2023-07-22T13:31:57.329Z,96252.52
2023-07-22T13:34:29.457Z,96250.02
2023-07-22T13:37:04.012Z,96245.02
2023-07-22T13:39:36.167Z,96242.87
2023-07-22T13:42:16.577Z,96239.10
2023-07-22T13:44:49.780Z,96240.86
2023-07-22T13:47:20.552Z,96238.98
2023-07-22T13:49:54.045Z,96238.86
2023-07-22T13:52:27.274Z,96239.47
2023-07-22T13:54:58.235Z,96240.23
2023-07-22T13:57:35.423Z,96235.59
2023-07-22T14:00:09.392Z,96235.29
2023-07-22T14:02:40.904Z,96234.31
2023-07-22T14:05:12.253Z,96235.77
2023-07-22T14:07:45.490Z,96231.72
2023-07-22T14:10:16.498Z,96229.22
2023-07-22T14:12:48.199Z,96234.92
2023-07-22T14:15:18.982Z,96238.84
2023-07-22T14:17:50.350Z,96237.55
2023-07-22T14:20:24.295Z,96241.48
2023-07-22T14:22:55.271Z,96244.02
2023-07-22T14:25:26.884Z,96242.38
2023-07-22T14:27:57.813Z,96247.52
2023-07-22T14:30:28.808Z,96246.80
2023-07-22T14:33:00.224Z,96244.46
2023-07-22T14:35:31.171Z,96243.20
2023-07-22T14:38:09.058Z,96245.86
2023-07-22T14:40:41.660Z,96248.61
2023-07-22T14:43:15.594Z,96248.55
2023-07-22T14:45:46.825Z,96251.78
2023-07-22T14:48:24.849Z,96253.77
2023-07-22T14:50:55.964Z,96254.48
2023-07-22T14:53:26.651Z,96257.63
2023-07-22T14:55:58.040Z,96258.56
2023-07-22T14:58:29.028Z,96257.92
2023-07-22T15:01:03.750Z,96256.90
2023-07-22T15:03:34.878Z,96258.83
2023-07-22T15:06:07.990Z,96261.04
2023-07-22T15:09:02.030Z,96263.02
2023-07-22T15:11:40.758Z,96268.89
2023-07-22T15:14:12.022Z,96273.62
2023-07-22T15:16:44.109Z,96272.00
2023-07-22T15:19:24.528Z,96277.28
2023-07-22T15:21:59.319Z,96275.02
2023-07-22T15:24:31.395Z,96274.76
2023-07-22T15:27:05.002Z,96273.27
2023-07-22T15:29:35.363Z,96273.71
2023-07-22T15:32:07.730Z,96276.52
2023-07-22T15:34:39.198Z,96274.61
2023-07-22T15:37:09.886Z,96273.62
2023-07-22T15:39:41.722Z,96273.75
2023-07-22T15:42:12.647Z,96271.82
2023-07-22T15:44:43.300Z,96269.65
2023-07-22T15:47:13.930Z,96275.59
2023-07-22T15:49:46.136Z,96280.23
2023-07-22T15:52:16.878Z,96280.56
2023-07-22T15:54:52.502Z,96283.42
2023-07-22T15:57:21.718Z,96288.02
2023-07-22T15:59:56.165Z,96289.41
2023-07-22T16:02:27.010Z,96290.98
2023-07-22T16:04:57.497Z,96295.48
2023-07-22T16:07:28.035Z,96296.52
2023-07-22T16:10:01.755Z,96300.91
2023-07-22T16:12:32.326Z,96310.02
2023-07-22T16:15:07.262Z,96307.12
2023-07-22T16:17:40.110Z,96314.02
2023-07-22T16:20:13.765Z,96316.55
2023-07-22T16:22:45.585Z,96318.48
2023-07-22T16:25:16.101Z,96320.38
2023-07-22T16:27:47.619Z,96324.86
2023-07-22T16:30:20.614Z,96321.92
2023-07-22T16:32:53.937Z,96327.02
2023-07-22T16:35:26.957Z,96329.72
2023-07-22T16:38:01.109Z,96334.06
2023-07-22T16:40:33.439Z,96339.29
2023-07-22T16:43:04.320Z,96341.99
2023-07-22T16:45:34.861Z,96348.75
2023-07-22T16:48:10.472Z,96345.33
2023-07-22T16:50:40.947Z,96352.64
2023-07-22T16:53:16.944Z,96357.02
2023-07-22T16:55:48.339Z,96362.94
2023-07-22T16:58:19.118Z,96367.98
2023-07-22T17:00:49.968Z,96370.27
2023-07-22T17:03:21.259Z,96369.45
2023-07-22T17:05:54.737Z,96376.30
2023-07-22T17:08:27.812Z,96379.93
2023-07-22T17:10:59.629Z,96389.77
2023-07-22T17:13:29.896Z,96392.77
2023-07-22T17:16:02.989Z,96396.36
2023-07-22T17:18:33.287Z,96397.88
2023-07-22T17:21:03.850Z,96405.09
2023-07-22T17:23:34.643Z,96413.84
2023-07-22T17:26:05.525Z,96418.16
2023-07-22T17:28:35.898Z,96419.95
2023-07-22T17:31:07.553Z,96424.54
2023-07-22T17:33:38.408Z,96432.63
2023-07-22T17:36:10.576Z,96437.31
2023-07-22T17:38:46.669Z,96441.17
2023-07-22T17:41:19.286Z,96443.33
2023-07-22T17:43:49.993Z,96440.31
2023-07-22T17:46:20.938Z,96447.27
2023-07-22T17:49:00.293Z,96452.04
2023-07-22T17:51:31.766Z,96461.67
2023-07-22T17:54:03.683Z,96461.67
2023-07-22T17:56:37.128Z,96462.79
2023-07-22T17:59:08.268Z,96465.42
2023-07-22T18:01:38.695Z,96469.79
2023-07-22T18:04:10.812Z,96473.59
2023-07-22T18:06:44.388Z,96479.54
2023-07-22T18:09:15.310Z,96482.92
2023-07-22T18:11:54.293Z,96484.44
2023-07-22T18:14:26.981Z,96484.64
2023-07-22T18:16:57.540Z,96486.13
2023-07-22T18:19:32.860Z,96492.63
2023-07-22T18:22:09.160Z,96495.64
2023-07-22T18:24:56.273Z,96494.80
2023-07-22T18:27:31.281Z,96495.20
2023-07-22T18:30:02.428Z,96498.53
2023-07-22T18:32:33.996Z,96499.73
2023-07-22T18:35:07.047Z,96497.45
2023-07-22T18:37:39.773Z,96498.11
2023-07-22T18:40:12.310Z,96497.67
2023-07-22T18:42:44.832Z,96497.73
2023-07-22T18:45:15.924Z,96503.02
2023-07-22T18:47:47.431Z,96502.33
2023-07-22T18:50:19.988Z,96503.02
2023-07-22T18:52:50.418Z,96502.92
2023-07-22T18:55:23.252Z,96506.59
2023-07-22T18:57:56.558Z,96509.65
2023-07-22T19:00:27.935Z,96517.98
2023-07-22T19:03:00.350Z,96521.64
2023-07-22T19:05:31.417Z,96518.75
2023-07-22T19:08:06.180Z,96520.45
2023-07-22T19:10:46.310Z,96526.70
2023-07-22T19:13:17.350Z,96528.74
2023-07-22T19:15:52.060Z,96528.82
2023-07-22T19:18:22.681Z,96527.23
2023-07-22T19:21:01.016Z,96529.13
2023-07-22T19:23:35.667Z,96531.29
2023-07-22T19:26:08.516Z,96530.85
2023-07-22T19:28:42.667Z,96532.32
2023-07-22T19:31:16.491Z,96530.33
2023-07-22T19:33:47.914Z,96532.48
2023-07-22T19:36:23.513Z,96542.52
2023-07-22T19:39:00.523Z,96543.98
2023-07-22T19:41:31.161Z,96544.80
2023-07-22T19:44:04.939Z,96544.10
2023-07-22T19:46:35.492Z,96545.16
2023-07-22T19:49:06.101Z,96541.77
2023-07-22T19:51:36.803Z,96542.98
2023-07-22T19:54:08.723Z,96543.16
2023-07-22T19:56:41.975Z,96546.42
2023-07-22T19:59:12.418Z,96548.42
2023-07-22T20:01:45.120Z,96547.17
2023-07-22T20:04:19.719Z,96546.66
2023-07-22T20:06:53.191Z,96547.88
2023-07-22T20:09:24.258Z,96548.45
2023-07-22T20:11:56.441Z,96549.05
2023-07-22T20:14:34.042Z,96547.63
2023-07-22T20:17:12.422Z,96553.77
2023-07-22T20:19:52.434Z,96549.51
2023-07-22T20:22:27.794Z,96549.38
2023-07-22T20:24:58.126Z,96553.91
2023-07-22T20:27:32.391Z,96548.69
2023-07-22T20:30:04.262Z,96545.82
2023-07-22T20:32:37.679Z,96544.66
2023-07-22T20:35:13.996Z,96544.26
2023-07-22T20:37:47.650Z,96544.06
2023-07-22T20:40:19.887Z,96544.73
2023-07-22T20:42:52.456Z,96544.27
2023-07-22T20:45:25.813Z,96539.69
2023-07-22T20:47:56.819Z,96539.98
2023-07-22T20:50:27.794Z,96541.34
2023-07-22T20:53:06.878Z,96541.38
2023-07-22T20:55:51.238Z,96544.10
2023-07-22T20:58:23.961Z,96542.52
2023-07-22T21:01:02.690Z,96546.91
2023-07-22T21:03:33.320Z,96545.73
2023-07-22T21:06:04.046Z,96549.05
2023-07-22T21:08:36.715Z,96553.11
2023-07-22T21:11:12.101Z,96548.20
2023-07-22T21:13:42.847Z,96554.94
2023-07-22T21:16:16.700Z,96555.34
2023-07-22T21:18:49.734Z,96556.68
2023-07-22T21:21:23.469Z,96559.77
2023-07-22T21:23:54.083Z,96561.61
2023-07-22T21:26:27.697Z,96564.53
2023-07-22T21:29:00.320Z,96570.63
2023-07-22T21:31:32.285Z,96566.92
2023-07-22T21:34:14.302Z,96568.73
2023-07-22T21:36:51.823Z,96573.25
2023-07-22T21:39:21.238Z,96575.67
2023-07-22T21:42:00.033Z,96574.21
2023-07-22T21:44:32.029Z,96577.73
2023-07-22T21:47:03.841Z,96578.59
2023-07-22T21:49:38.629Z,96576.29
2023-07-22T21:52:09.954Z,96576.08
2023-07-22T21:54:40.865Z,96572.44
2023-07-22T21:57:11.800Z,96568.90
2023-07-22T21:59:43.657Z,96566.65
2023-07-22T22:02:14.745Z,96564.70
2023-07-22T22:04:53.852Z,96559.85
2023-07-22T22:07:23.076Z,96555.77
2023-07-22T22:09:52.520Z,96548.69
2023-07-22T22:12:21.558Z,96547.98
2023-07-22T22:14:54.511Z,96549.48
2023-07-22T22:17:23.675Z,96549.33
2023-07-22T22:19:52.914Z,96550.15
2023-07-22T22:22:26.013Z,96546.79
2023-07-22T22:24:55.009Z,96547.67
2023-07-22T22:27:25.143Z,96545.55
2023-07-22T22:29:54.592Z,96545.85
2023-07-22T22:32:24.082Z,96549.65
2023-07-22T22:34:55.602Z,96548.71
2023-07-22T22:37:24.758Z,96552.95
2023-07-22T22:39:54.779Z,96552.30
2023-07-22T22:42:25.909Z,96551.83
2023-07-22T22:44:57.276Z,96552.48
2023-07-22T22:47:26.280Z,96557.73
2023-07-22T22:49:56.975Z,96555.98
2023-07-22T22:52:25.917Z,96554.30
2023-07-22T22:54:55.100Z,96557.30
2023-07-22T22:57:24.559Z,96556.98
2023-07-22T22:59:53.575Z,96554.08
2023-07-22T23:02:22.650Z,96552.46
2023-07-22T23:04:55.609Z,96551.12
2023-07-22T23:07:33.370Z,96551.70
2023-07-22T23:10:06.233Z,96552.33
2023-07-22T23:12:39.973Z,96553.75
2023-07-22T23:15:48.087Z,96552.90
2023-07-22T23:18:22.999Z,96555.02
2023-07-22T23:21:05.432Z,96552.96
2023-07-22T23:23:44.624Z,96550.83
2023-07-22T23:26:14.121Z,96547.05
2023-07-22T23:28:51.890Z,96550.85
2023-07-22T23:31:21.577Z,96548.05
2023-07-22T23:33:51.376Z,96547.76
2023-07-22T23:36:21.307Z,96544.91
2023-07-22T23:38:54.521Z,96547.39
2023-07-22T23:41:28.142Z,96543.45
2023-07-22T23:44:00.127Z,96544.05
2023-07-22T23:46:35.146Z,96547.91
2023-07-22T23:49:08.518Z,96543.95
2023-07-22T23:51:54.554Z,96544.55
2023-07-22T23:54:25.017Z,96541.77
2023-07-22T23:56:57.305Z,96540.45
2023-07-22T23:59:26.810Z,96538.53
